Tiempo atmosférico en la estación meteorológica de Villarrasa, Huelva (145 m.)



Fecha
DESCASC
Temp. máxima en grados centígrados (hora)
DESCASC
Temp. mínima en grados centígrados (hora)
DESCASC
Temp. media en grados centígrados
DESCASC
Racha de viento máxima en m/sg (hora)
DESCASC
Velocidad máxima media en intervalos de 10 minutos(hora)
DESCASC
Precipitaciones diarias en mm
DESCASC
Precipitaciones de 00:00 a 06:00 en mm
DESCASC
Precipitaciones de 06:00 a 12:00 en mm
DESCASC
Precipitaciones de 12:00 a 18:00 en mm
DESCASC
Precipitaciones de 18:00 a 24:00 en mm
DESCASC
15-07-2018 26.2 (15:40) 11.9 (07:20) 19.1 12.22 (16:30) 6.11 (18:20) 0 0 0 0 0
14-07-2018 27 (15:50) 14.6 (03:10) 20.8 8.61 (18:00) 4.72 (17:10) 0 0 0 0 0
13-07-2018 28.3 (17:20) 18.8 (00:10) 23.5 8.06 (17:00) 4.17 (16:10) 0 0 0 0 0
12-07-2018 28.3 (17:20) 15.1 (00:00) 21.7 8.89 (19:00) 4.17 (19:40) 0 0 0 0 0
11-07-2018 31 (15:40) 16.5 (00:00) 23.8 9.44 (16:30) 6.11 (17:30) 0 0 0 0 0
10-07-2018 33.5 (14:50) 16.4 (00:00) 24.9 9.72 (15:50) 6.39 (15:40) 0 0 0 0 0
09-07-2018 34.8 (18:10) 16.5 (00:00) 25.6 8.33 (17:00) 4.44 (19:20) 0 0 0 0 0
08-07-2018 34.2 (16:40) 17.1 (07:40) 25.7 7.78 (15:50) 5 (19:20) 0 0 0 0 0
07-07-2018 36.3 (17:20) 15.6 (00:00) 25.9 9.44 (18:00) 5.83 (18:30) 0 0 0 0 0
06-07-2018 34.1 (16:30) 17.5 (00:00) 25.8 9.44 (18:30) 5.83 (19:40) 0 0 0 0 0
05-07-2018 31.8 (18:00) 15.2 (07:40) 23.5 10 (19:50) 6.11 (19:20) 0 0 0 0 0
04-07-2018 28.1 (17:50) 14.9 (07:40) 21.5 10.28 (19:10) 5.56 (19:00) 0 0 0 0 0
03-07-2018 32.5 (17:00) 15 (07:30) 23.8 9.17 (18:10) 5.83 (18:10) 0 0 0 0 0
02-07-2018 27.8 (16:10) 12.6 (05:10) 20.2 8.33 (19:20) 4.72 (19:20) 0 0 0 0 0
01-07-2018 25.8 (17:10) 14.8 (00:00) 20.3 10.56 (15:40) 5.83 (17:40) 0 0 0 0 0
30-06-2018 24.9 (17:50) 16.7 (01:50) 20.8 9.44 (11:00) 5.28 (11:00) 2 0 0 2 0
29-06-2018 29.9 (15:00) 13.9 (00:00) 21.9 10.83 (15:20) 5.28 (17:50) 0 0 0 0 0
28-06-2018 30.7 (15:50) 18.8 (00:00) 24.8 10.28 (16:20) 6.11 (18:10) 0 0 0 0 0
27-06-2018 31.8 (16:10) 14.4 (00:00) 23.1 10 (17:30) 6.11 (17:20) 0 0 0 0 0
26-06-2018 31.7 (16:40) 16.2 (00:00) 24 9.17 (17:20) 5.28 (17:20) 0 0 0 0 0
25-06-2018 29.9 (17:30) 18.9 (00:00) 24.4 7.22 (18:10) 3.89 (18:50) 0 0 0 0 0
24-06-2018 32.2 (15:30) 16.4 (00:00) 24.3 9.17 (17:30) 5 (15:50) 0 0 0 0 0
23-06-2018 34.9 (16:30) 15.4 (00:00) 25.2 8.33 (15:40) 5.28 (19:00) 0 0 0 0 0
22-06-2018 33.4 (17:20) 18.9 (06:50) 26.2 9.72 (18:50) 5 (18:30) 0.2 0 0.2 0 0
21-06-2018 31.1 (15:30) 18.7 (00:00) 24.9 8.33 (19:40) 5 (17:10) 0 0 0 0 0
20-06-2018 32.4 (16:20) 17 (00:00) 24.7 10.28 (17:30) 6.11 (17:20) 0 0 0 0 0
19-06-2018 35.1 (17:40) 15.7 (00:00) 25.4 8.33 (13:40) 4.72 (18:10) 0 0 0 0 0
18-06-2018 37.8 (16:30) 18.1 (00:00) 27.9 11.11 (17:00) 6.67 (17:00) 0 0 0 0 0
17-06-2018 37.1 (18:50) 15.4 (00:00) 26.2 6.94 (15:00) 3.89 (20:30) 0 0 0 0 0

Gráficas

Temp. máximas Temp. mínimas Temp. medias Precipitaciones Rachas de viento máximas Velocidades máximas media en intervalos de 10 minutos

Datos horarios

Fecha y hora oficial Temperatura (ºC) Velocidad del viento (km/h) Dirección del viento Racha (km/h) Dirección de racha Precipitación (mm) Presión (hPa) Tendencia (hPa) Humedad (%)
2018-07-16 23:00:00 20.4 3 Norte 11 Sur 0 -- -- 67
2018-07-16 22:00:00 22.1 6 Sudoeste 22 Sudoeste 0 -- -- 63
2018-07-16 21:00:00 24.2 15 Sudoeste 31 Sudoeste 0 -- -- 55
2018-07-16 20:00:00 27.5 15 Sudoeste 30 Sudoeste 0 -- -- 47
2018-07-16 19:00:00 30.3 18 Sudoeste 31 Sudoeste 0 -- -- 41
2018-07-16 18:00:00 31 16 Sudoeste 32 Sudoeste 0 -- -- 38
2018-07-16 17:00:00 31.8 11 Sudoeste 24 Sur 0 -- -- 35
2018-07-16 16:00:00 30.4 10 Sur 26 Sudoeste 0 -- -- 36
2018-07-16 15:00:00 29.3 11 Sudoeste 25 Oeste 0 -- -- 38
2018-07-16 14:00:00 27.9 8 Oeste 21 Sur 0 -- -- 42
2018-07-16 13:00:00 26.9 7 Sur 18 Sur 0 -- -- 44
2018-07-16 12:00:00 25.3 8 Sudeste 15 Sudeste 0 -- -- 49
2018-07-16 11:00:00 23.7 5 Nordeste 11 Nordeste 0 -- -- 55
2018-07-16 10:00:00 21.2 5 Norte 15 Norte 0 -- -- 67
2018-07-16 09:00:00 18.3 9 Noroeste 15 Noroeste 0 -- -- 81
2018-07-16 08:00:00 14.6 3 Sudoeste 9 Noroeste 0 -- -- 92
2018-07-16 07:00:00 15 0 Calma 11 Noroeste 0 -- -- 88
2018-07-16 06:00:00 15.1 6 Noroeste 9 Noroeste 0 -- -- 89
2018-07-16 05:00:00 16.7 2 Sur 14 Noroeste 0 -- -- 84
2018-07-16 04:00:00 17.5 8 Noroeste 13 Noroeste 0 -- -- 83
2018-07-16 03:00:00 18.5 5 Noroeste 18 Noroeste 0 -- -- 78
2018-07-16 02:00:00 19.5 10 Noroeste 24 Noroeste 0 -- -- 73
2018-07-16 01:00:00 20.5 14 Noroeste 27 Noroeste 0 -- -- 68
2018-07-16 00:00:00 21.1 7 Noroeste 17 Noroeste 0 -- -- 63
2018-07-15 23:00:00 20.6 3 Oeste 16 Sudoeste 0 -- -- 75
2018-07-15 22:00:00 21.5 8 Sudoeste 26 Sur 0 -- -- 73
2018-07-15 21:00:00 22.6 10 Sudoeste 30 Sudoeste 0 -- -- 68
2018-07-15 20:00:00 24.7 15 Sudoeste 33 Sur 0 -- -- 57
2018-07-15 19:00:00 24.8 18 Sudoeste 38 Sudoeste 0 -- -- 54
2018-07-15 18:00:00 25.2 19 Sudoeste 42 Sudoeste 0 -- -- 53
2018-07-15 17:00:00 25.9 17 Sudoeste 44 Sur 0 -- -- 52
2018-07-15 16:00:00 25.9 18 Sudoeste 33 Sudoeste 0 -- -- 50
2018-07-15 15:00:00 26 18 Oeste 32 Sudoeste 0 -- -- 48
2018-07-15 14:00:00 25.6 13 Sudoeste 28 Sudoeste 0 -- -- 47
2018-07-15 13:00:00 24 12 Oeste 26 Oeste 0 -- -- 49
2018-07-15 12:00:00 23 9 Oeste 18 Oeste 0 -- -- 54
2018-07-15 11:00:00 21.1 8 Sudoeste 16 Sudoeste 0 -- -- 63
2018-07-15 10:00:00 19.9 6 Oeste 11 Oeste 0 -- -- 72
2018-07-15 09:00:00 16.9 2 Noroeste 5 Noroeste 0 -- -- 87
2018-07-15 08:00:00 12.7 3 Noroeste 5 Oeste 0 -- -- 94
2018-07-15 07:00:00 12 0 Calma 4 Norte 0 -- -- 91
2018-07-15 06:00:00 12.9 0 Calma 4 Noroeste 0 -- -- 91
2018-07-15 05:00:00 13.6 0 Calma 3 Sudoeste 0 -- -- 89
2018-07-15 04:00:00 14.1 4 Sur 8 Sur 0 -- -- 89
2018-07-15 03:00:00 14.8 5 Norte 8 Norte 0 -- -- 89
2018-07-15 02:00:00 14.8 3 Noroeste 5 Norte 0 -- -- 86
2018-07-15 01:00:00 15.8 3 Norte 4 Norte 0 -- -- 83
2018-07-15 00:00:00 17.3 4 Sudeste 6 Sudeste 0 -- -- 79
2018-07-14 23:00:00 18.6 4 Sur 17 Sur 0 -- -- 75
2018-07-14 22:00:00 19.7 9 Sudoeste 24 Sur 0 -- -- 69
2018-07-14 21:00:00 21.8 12 Sudoeste 26 Sudoeste 0 -- -- 62
2018-07-14 20:00:00 23.3 15 Sudoeste 26 Sur 0 -- -- 55
2018-07-14 19:00:00 25 14 Sudoeste 27 Oeste 0 -- -- 48
2018-07-14 18:00:00 25.9 15 Sudoeste 31 Sudoeste 0 -- -- 48
2018-07-14 17:00:00 26.8 13 Sudoeste 27 Sudoeste 0 -- -- 47
2018-07-14 16:00:00 26.7 13 Sudoeste 27 Sudoeste 0 -- -- 48
2018-07-14 15:00:00 26.4 12 Sudoeste 27 Sudoeste 0 -- -- 51
2018-07-14 14:00:00 25.9 10 Sudoeste 24 Sudoeste 0 -- -- 55
2018-07-14 13:00:00 24.3 5 Sudoeste 23 Sur 0 -- -- 61
2018-07-14 12:00:00 21.8 6 Sur 14 Sur 0 -- -- 71
2018-07-14 11:00:00 20.6 6 Sudeste 15 Sur 0 -- -- 77
2018-07-14 10:00:00 20 5 Este 12 Este 0 -- -- 81
2018-07-14 09:00:00 17.9 4 Este 10 Este 0 -- -- 94
2018-07-14 08:00:00 16.9 5 Este 11 Este 0 -- -- 94
2018-07-14 07:00:00 16.5 3 Este 9 Este 0 -- -- 94
2018-07-14 06:00:00 16.2 4 Nordeste 6 Nordeste 0 -- -- 93
2018-07-14 05:00:00 14.6 2 Norte 4 Nordeste 0 -- -- 91
2018-07-14 04:00:00 14.6 3 Nordeste 4 Norte 0 -- -- 90
2018-07-14 03:00:00 14.7 0 Calma 3 Norte 0 -- -- 87
2018-07-14 02:00:00 15.5 3 Norte 5 Oeste 0 -- -- 88
2018-07-14 01:00:00 16.5 0 Calma 3 Noroeste 0 -- -- 83
2018-07-14 00:00:00 18.8 3 Sudoeste 9 Sudoeste 0 -- -- 81
2018-07-13 23:00:00 20.1 4 Sur 12 Sudoeste 0 -- -- 76
2018-07-13 22:00:00 21.8 8 Sudoeste 20 Oeste 0 -- -- 68
2018-07-13 21:00:00 24.6 10 Sudoeste 23 Sudoeste 0 -- -- 58
2018-07-13 20:00:00 26.7 12 Sudoeste 23 Oeste 0 -- -- 51
2018-07-13 19:00:00 27.7 7 Sudoeste 25 Sudoeste 0 -- -- 49
2018-07-13 18:00:00 27.7 13 Sudoeste 26 Sudoeste 0 -- -- 49
2018-07-13 17:00:00 27.8 13 Sudoeste 29 Sur 0 -- -- 49
2018-07-13 16:00:00 27.6 13 Sur 24 Sudeste 0 -- -- 49
2018-07-13 15:00:00 27.2 10 Sudoeste 23 Sur 0 -- -- 47
2018-07-13 14:00:00 25 6 Norte 15 Sur 0 -- -- 52
2018-07-13 13:00:00 23.9 4 Sudeste 12 Sudeste 0 -- -- 57
2018-07-13 12:00:00 22.5 4 Nordeste 13 Este 0 -- -- 64
2018-07-13 11:00:00 21.9 6 Nordeste 12 Nordeste 0 -- -- 68
2018-07-13 10:00:00 21.3 4 Sudeste 12 Este 0 -- -- 71
2018-07-13 09:00:00 19.9 5 Este 9 Sudeste 0 -- -- 77
2018-07-13 08:00:00 19.3 4 Sudeste 7 Sudeste 0 -- -- 79
2018-07-13 07:00:00 19.4 2 Este 5 Este 0 -- -- 80
2018-07-13 06:00:00 19.6 3 Sudeste 7 Este 0 -- -- 79
2018-07-13 05:00:00 19.6 2 Sudeste 3 Sudeste 0 -- -- 79
2018-07-13 04:00:00 19.5 2 Sudeste 4 Sudeste 0 -- -- 81
2018-07-13 03:00:00 19.5 3 Sudeste 4 Sur 0 -- -- 81
2018-07-13 02:00:00 19.2 0 Calma 3 Sur 0 -- -- 81
2018-07-13 01:00:00 19.2 0 Calma 5 Sudoeste 0 -- -- 81
2018-07-13 00:00:00 18.9 0 Calma 5 Sudoeste 0 -- -- 80
2018-07-12 23:00:00 19.9 3 Sudoeste 14 Sur 0 -- -- 77
2018-07-12 22:00:00 21 9 Sur 20 Sudoeste 0 -- -- 72
2018-07-12 21:00:00 23.3 10 Sudoeste 21 Sudoeste 0 -- -- 64
2018-07-12 20:00:00 25 13 Sudoeste 26 Oeste 0 -- -- 58
2018-07-12 19:00:00 26.6 14 Sur 32 Sudoeste 0 -- -- 53
2018-07-12 18:00:00 27.9 10 Sudoeste 27 Sudoeste 0 -- -- 51
2018-07-12 17:00:00 28 11 Sur 21 Sur 0 -- -- 52
2018-07-12 16:00:00 27.3 9 Sur 21 Sur 0 -- -- 54
2018-07-12 15:00:00 26.7 10 Sur 24 Sudeste 0 -- -- 57
2018-07-12 14:00:00 24.7 7 Sur 17 Sudeste 0 -- -- 64
2018-07-12 13:00:00 23.8 8 Sudeste 15 Sudeste 0 -- -- 68
2018-07-12 12:00:00 22.5 9 Este 16 Sudeste 0 -- -- 72
2018-07-12 11:00:00 21.2 8 Sudeste 16 Sudeste 0 -- -- 79
2018-07-12 10:00:00 20.2 7 Sudeste 12 Sudeste 0 -- -- 85
2018-07-12 09:00:00 19.4 6 Sudeste 13 Sudeste 0 -- -- 90
2018-07-12 08:00:00 18.3 3 Este 10 Sudeste 0 -- -- 95
2018-07-12 07:00:00 17.7 5 Este 12 Este 0 -- -- 95
2018-07-12 06:00:00 17.1 3 Norte 8 Nordeste 0 -- -- 95
2018-07-12 05:00:00 16.3 2 Norte 6 Nordeste 0 -- -- 93
2018-07-12 04:00:00 15.3 2 Nordeste 4 Norte -- -- -- 88
2018-07-12 03:00:00 16 0 Calma 4 Este 0 -- -- 87
2018-07-12 02:00:00 16.6 0 Calma -- -- 0 -- -- 84
2018-07-12 01:00:00 17.6 0 Calma 4 Norte 0 -- -- 82
2018-07-12 00:00:00 19.3 0 Calma 8 Oeste 0 -- -- 77
2018-07-11 23:00:00 20.8 0 Calma 9 Sudoeste 0 -- -- 74
2018-07-11 22:00:00 21.7 6 Sudoeste 14 Sudoeste 0 -- -- 71
2018-07-11 21:00:00 23.5 11 Sudoeste 26 Sudoeste 0 -- -- 62
2018-07-11 20:00:00 25.1 15 Sudoeste 30 Sudoeste 0 -- -- 58
2018-07-11 19:00:00 26.3 18 Sudoeste 34 Sudoeste 0 -- -- 57
2018-07-11 18:00:00 28.1 19 Sudoeste 33 Oeste 0 -- -- 53
2018-07-11 17:00:00 29.3 17 Sudoeste 34 Sudoeste 0 -- -- 51
2018-07-11 16:00:00 30.7 14 Sudoeste 31 Sur 0 -- -- 46
2018-07-11 15:00:00 30.3 12 Oeste 26 Sudoeste 0 -- -- 43
2018-07-11 14:00:00 28.5 10 Sur 23 Sudoeste 0 -- -- 49
2018-07-11 13:00:00 26.6 8 Oeste 17 Sudoeste 0 -- -- 55
2018-07-11 12:00:00 24.3 3 Sudoeste 12 Sudeste 0 -- -- 67
2018-07-11 11:00:00 21.7 3 Sudoeste 8 Este 0 -- -- 79
2018-07-11 10:00:00 19.8 5 Sur 9 Este 0 -- -- 85
2018-07-11 09:00:00 18.8 3 Sudeste 9 Este 0 -- -- 90
2018-07-11 08:00:00 18.3 4 Nordeste 9 Nordeste 0 -- -- 92
2018-07-11 07:00:00 18.1 3 Norte 8 Nordeste 0 -- -- 92
2018-07-11 06:00:00 17.7 5 Nordeste 9 Este 0 -- -- 91
2018-07-11 05:00:00 17.5 2 Este 10 Este 0 -- -- 91
2018-07-11 04:00:00 16.5 2 Nordeste 4 Este 0 -- -- 85
2018-07-11 03:00:00 17 3 Nordeste 4 Nordeste 0 -- -- 83
2018-07-11 02:00:00 17.8 0 Calma 3 Sudoeste 0 -- -- 80
2018-07-11 01:00:00 18.6 0 Calma 4 Sudoeste 0 -- -- 77
2018-07-11 00:00:00 19.7 0 Calma 4 Noroeste 0 -- -- 74
2018-07-10 23:00:00 21.4 3 Oeste 7 Sur 0 -- -- 68
2018-07-10 22:00:00 23.2 4 Sudoeste 18 Oeste 0 -- -- 65
2018-07-10 21:00:00 25.3 11 Sudoeste 30 Sudoeste 0 -- -- 59
2018-07-10 20:00:00 26.6 16 Sudoeste 35 Oeste 0 -- -- 55
2018-07-10 19:00:00 29 17 Sudoeste 34 Sudoeste 0 -- -- 51
2018-07-10 18:00:00 31.3 21 Oeste 35 Oeste 0 -- -- 47
2018-07-10 17:00:00 31.7 19 Sudoeste 33 Sudoeste 0 -- -- 41
2018-07-10 16:00:00 31.1 21 Sudoeste 35 Oeste 0 -- -- 47
2018-07-10 15:00:00 33.4 15 Sudoeste 31 Sudoeste 0 -- -- 41
2018-07-10 14:00:00 32.3 10 Sur 22 Sur 0 -- -- 38
2018-07-10 13:00:00 30.2 11 Sudoeste 24 Sudoeste 0 -- -- 44
2018-07-10 12:00:00 28.6 5 Sur 14 Sur 0 -- -- 48
2018-07-10 11:00:00 26.7 6 Sur 13 Sur 0 -- -- 53
2018-07-10 10:00:00 24.8 5 Este 12 Este 0 -- -- 58
2018-07-10 09:00:00 22.2 4 Sur 5 Sur 0 -- -- 62
2018-07-10 08:00:00 16.8 3 Noroeste 4 Noroeste 0 -- -- 81
2018-07-10 07:00:00 16.8 3 Norte 7 Este 0 -- -- 78
2018-07-10 06:00:00 17.7 4 Este 6 Este 0 -- -- 75
2018-07-10 05:00:00 19.5 0 Calma 4 Sur 0 -- -- 70
2018-07-10 04:00:00 22.7 2 Oeste 16 Noroeste 0 -- -- 63
2018-07-10 03:00:00 23.5 8 Noroeste 16 Norte 0 -- -- 60
2018-07-10 02:00:00 19.5 0 Calma 4 Noroeste 0 -- -- 64
2018-07-10 01:00:00 20.3 4 Noroeste 5 Norte 0 -- -- 63
2018-07-10 00:00:00 21.5 3 Norte 4 Noroeste 0 -- -- 60
2018-07-09 23:00:00 24.4 2 Noroeste 10 Sudoeste 0 -- -- 52
2018-07-09 22:00:00 27.7 8 Oeste 18 Sudoeste 0 -- -- 47
2018-07-09 21:00:00 30.1 13 Sudoeste 22 Oeste 0 -- -- 39
2018-07-09 20:00:00 32.2 13 Sudoeste 24 Sudoeste 0 -- -- 36
2018-07-09 19:00:00 33.9 15 Sudoeste 27 Sudoeste 0 -- -- 34
2018-07-09 18:00:00 34.5 12 Sudoeste 25 Sudoeste 0 -- -- 32
2018-07-09 17:00:00 34.5 12 Sudoeste 30 Oeste 0 -- -- 33
2018-07-09 16:00:00 34.3 13 Sudoeste 26 Oeste 0 -- -- 34
2018-07-09 15:00:00 33.9 12 Sudoeste 28 Sudoeste 0 -- -- 35
2018-07-09 14:00:00 33.3 13 Sudoeste 26 Sudoeste 0 -- -- 35
2018-07-09 13:00:00 31.9 12 Sur 21 Sur 0 -- -- 38
2018-07-09 12:00:00 30.3 9 Sur 17 Sur 0 -- -- 43
2018-07-09 11:00:00 28.4 5 Sudeste 12 Sur 0 -- -- 49
2018-07-09 10:00:00 26 7 Sudoeste 12 Sudoeste 0 -- -- 55
2018-07-09 09:00:00 22.9 2 Nordeste 8 Norte 0 -- -- 61
2018-07-09 08:00:00 17.5 5 Nordeste 9 Nordeste 0 -- -- 75
2018-07-09 07:00:00 16.6 2 Este 8 Norte 0 -- -- 77
2018-07-09 06:00:00 16.9 5 Norte 6 Norte 0 -- -- 76
2018-07-09 05:00:00 17.6 0 Calma 4 Noroeste 0 -- -- 72
2018-07-09 04:00:00 18 4 Noroeste 5 Noroeste 0 -- -- 69
2018-07-09 03:00:00 19.1 0 Calma 6 Noroeste 0 -- -- 64
2018-07-09 02:00:00 20.2 4 Sur 6 Noroeste 0 -- -- 60
2018-07-09 01:00:00 20.5 0 Calma 4 Noroeste 0 -- -- 59
2018-07-09 00:00:00 22.5 0 Calma 10 Oeste 0 -- -- 52
2018-07-08 23:00:00 25.6 6 Oeste 12 Sudoeste 0 -- -- 45
2018-07-08 22:00:00 28.3 8 Sudoeste 23 Oeste 0 -- -- 39
2018-07-08 21:00:00 30.7 12 Sudoeste 24 Sudoeste 0 -- -- 35
2018-07-08 20:00:00 32.2 14 Sudoeste 27 Sudoeste 0 -- -- 34
2018-07-08 19:00:00 33.5 15 Sudoeste 27 Sur 0 -- -- 32
2018-07-08 18:00:00 33.7 16 Sudoeste 28 Sur 0 -- -- 31
2018-07-08 17:00:00 34 15 Oeste 28 Sudoeste 0 -- -- 31
2018-07-08 16:00:00 33.8 15 Oeste 28 Sudoeste 0 -- -- 30
2018-07-08 15:00:00 33.1 14 Oeste 28 Sudoeste 0 -- -- 33
2018-07-08 14:00:00 32.8 12 Sudoeste 28 Sudoeste 0 -- -- 35
2018-07-08 13:00:00 32 8 Sur 17 Sur 0 -- -- 39
2018-07-08 12:00:00 30.4 8 Sudoeste 16 Sur 0 -- -- 41
2018-07-08 11:00:00 28.5 9 Sur 15 Sur 0 -- -- 45
2018-07-08 10:00:00 27.2 6 Este 11 Este 0 -- -- 48
2018-07-08 09:00:00 23.6 4 Este 6 Este 0 -- -- 58
2018-07-08 08:00:00 17.6 3 Norte 9 Nordeste 0 -- -- 75
2018-07-08 07:00:00 17.9 3 Este 7 Este 0 -- -- 73
2018-07-08 06:00:00 17.5 4 Noroeste 5 Nordeste 0 -- -- 74
2018-07-08 05:00:00 17.5 4 Noroeste 5 Noroeste 0 -- -- 70
2018-07-08 04:00:00 18.2 0 Calma 2 Noroeste 0 -- -- 68
2018-07-08 03:00:00 19 0 Calma 4 Nordeste 0 -- -- 66
2018-07-08 02:00:00 20.4 0 Calma 5 Noroeste 0 -- -- 62
2018-07-08 01:00:00 21.8 3 Noroeste 8 Oeste 0 -- -- 58
2018-07-08 00:00:00 22.7 2 Noroeste 4 Oeste 0 -- -- 50
2018-07-07 23:00:00 26.3 3 Sudoeste 13 Sudoeste 0 -- -- 40
2018-07-07 22:00:00 28 9 Sudoeste 21 Sudoeste 0 -- -- 37
2018-07-07 21:00:00 30.5 14 Sudoeste 28 Sudoeste 0 -- -- 34
2018-07-07 20:00:00 33.2 17 Sudoeste 34 Oeste 0 -- -- 29
2018-07-07 19:00:00 34.8 18 Sudoeste 33 Sudoeste 0 -- -- 27
2018-07-07 18:00:00 36 17 Oeste 34 Sudoeste 0 -- -- 27
2018-07-07 17:00:00 35.8 11 Oeste 28 Oeste 0 -- -- 25
2018-07-07 16:00:00 35 7 Nordeste 24 Sudoeste 0 -- -- 27
2018-07-07 15:00:00 34.5 9 Sur 23 Sudeste 0 -- -- 27
2018-07-07 14:00:00 33.3 5 Oeste 17 Sudoeste 0 -- -- 29
2018-07-07 13:00:00 32.3 7 Sudeste 15 Este 0 -- -- 33
2018-07-07 12:00:00 30.4 10 Sur 19 Sur 0 -- -- 36
2018-07-07 11:00:00 28.8 9 Sudeste 16 Sudeste 0 -- -- 41
2018-07-07 10:00:00 26.7 5 Este 10 Sudeste 0 -- -- 50
2018-07-07 09:00:00 22.9 3 Nordeste 6 Nordeste 0 -- -- 63
2018-07-07 08:00:00 16.3 3 Norte 6 Noroeste 0 -- -- 81
2018-07-07 07:00:00 15.8 4 Noroeste 5 Este 0 -- -- 79
2018-07-07 06:00:00 16.8 0 Calma 4 Noroeste 0 -- -- 78
2018-07-07 05:00:00 17.4 0 Calma 4 Sur 0 -- -- 72
2018-07-07 04:00:00 18.1 3 Noroeste 6 Noroeste 0 -- -- 72
2018-07-07 03:00:00 18.4 4 Oeste 5 Norte 0 -- -- 67
2018-07-07 02:00:00 19 4 Noroeste 5 Noroeste 0 -- -- 64
2018-07-07 01:00:00 20.3 0 Calma 6 Oeste 0 -- -- 60
2018-07-07 00:00:00 20.7 0 Calma 5 Noroeste 0 -- -- 56
2018-07-06 23:00:00 22.8 4 Noroeste 9 Oeste 0 -- -- 49
2018-07-06 22:00:00 25.5 6 Sudoeste 17 Sudoeste 0 -- -- 43
2018-07-06 21:00:00 27.4 13 Sudoeste 26 Oeste 0 -- -- 39
2018-07-06 20:00:00 29.6 16 Oeste 30 Sudoeste 0 -- -- 36
2018-07-06 19:00:00 31.3 18 Sudoeste 34 Sudoeste 0 -- -- 33
2018-07-06 18:00:00 34 17 Sudoeste 30 Sudoeste 0 -- -- 29
2018-07-06 17:00:00 34 14 Sudoeste 27 Sudoeste 0 -- -- 28
2018-07-06 16:00:00 33.8 8 Oeste 25 Sudoeste 0 -- -- 27
2018-07-06 15:00:00 33.1 13 Sudoeste 24 Oeste 0 -- -- 29
2018-07-06 14:00:00 31.5 8 Sur 20 Sudoeste 0 -- -- 32
2018-07-06 13:00:00 30.2 9 Sudeste 19 Sur 0 -- -- 37
2018-07-06 12:00:00 27.8 5 Oeste 13 Sur 0 -- -- 44
2018-07-06 11:00:00 26 5 Sudeste 12 Sudeste 0 -- -- 50
2018-07-06 10:00:00 24.1 3 Oeste 7 Noroeste 0 -- -- 56
2018-07-06 09:00:00 21 6 Oeste 10 Noroeste 0 -- -- 66
2018-07-06 08:00:00 17.9 3 Este 5 Norte 0 -- -- 77
2018-07-06 07:00:00 18.8 3 Norte 9 Noroeste 0 -- -- 72
2018-07-06 06:00:00 19.5 7 Noroeste 16 Noroeste 0 -- -- 70
2018-07-06 05:00:00 20.1 4 Noroeste 22 Noroeste 0 -- -- 68
2018-07-06 04:00:00 20.7 9 Noroeste 17 Norte 0 -- -- 65
2018-07-06 03:00:00 21.1 8 Noroeste 15 Noroeste 0 -- -- 62
2018-07-06 02:00:00 20.8 5 Norte 10 Noroeste 0 -- -- 62
2018-07-06 01:00:00 19.8 3 Noroeste 9 Noroeste 0 -- -- 65
2018-07-06 00:00:00 19.9 3 Norte 8 Oeste 0 -- -- 67
2018-07-05 23:00:00 22 6 Oeste 17 Sudoeste 0 -- -- 62
2018-07-05 22:00:00 23.1 12 Sudoeste 28 Oeste 0 -- -- 58
2018-07-05 21:00:00 24.6 12 Sudoeste 31 Sudoeste 0 -- -- 54
2018-07-05 20:00:00 25.5 19 Sudoeste 36 Sudoeste 0 -- -- 51
2018-07-05 19:00:00 28.4 18 Sudoeste 35 Sudoeste 0 -- -- 44
2018-07-05 18:00:00 31.8 15 Oeste 32 Oeste 0 -- -- 30
2018-07-05 17:00:00 31.2 14 Oeste 31 Oeste 0 -- -- 31
2018-07-05 16:00:00 30.9 11 Noroeste 30 Oeste 0 -- -- 32
2018-07-05 15:00:00 30.3 13 Oeste 27 Oeste 0 -- -- 33
2018-07-05 14:00:00 28.9 9 Oeste 24 Oeste 0 -- -- 35
2018-07-05 13:00:00 27.5 5 Oeste 18 Oeste 0 -- -- 41
2018-07-05 12:00:00 25.8 9 Sur 18 Sudoeste 0 -- -- 48
2018-07-05 11:00:00 23.8 4 Sur 11 Sur 0 -- -- 55
2018-07-05 10:00:00 21.9 3 Oeste 8 Sudoeste 0 -- -- 61
2018-07-05 09:00:00 19.9 3 Norte 8 Norte 0 -- -- 70
2018-07-05 08:00:00 15.6 0 Calma 3 Noroeste 0 -- -- 84
2018-07-05 07:00:00 16.2 0 Calma 8 Noroeste 0 -- -- 81
2018-07-05 06:00:00 17.6 6 Noroeste 22 Norte 0 -- -- 77
2018-07-05 05:00:00 18.3 10 Noroeste 24 Noroeste 0 -- -- 75
2018-07-05 04:00:00 18.8 9 Noroeste 19 Noroeste 0 -- -- 74
2018-07-05 03:00:00 19.2 9 Noroeste 21 Noroeste 0 -- -- 72
2018-07-05 02:00:00 20 11 Noroeste 28 Noroeste 0 -- -- 67
2018-07-05 01:00:00 21.1 16 Noroeste 33 Noroeste 0 -- -- 64
2018-07-05 00:00:00 21.8 14 Noroeste 25 Noroeste 0 -- -- 60
2018-07-04 23:00:00 21.8 8 Oeste 15 Sudoeste 0 -- -- 66
2018-07-04 22:00:00 23.1 10 Sudoeste 21 Sudoeste 0 -- -- 60
2018-07-04 21:00:00 24.6 12 Sudoeste 29 Sudoeste 0 -- -- 53
2018-07-04 20:00:00 25.9 16 Sudoeste 37 Sudoeste 0 -- -- 50
2018-07-04 19:00:00 26.5 20 Sudoeste 32 Sudoeste 0 -- -- 50
2018-07-04 18:00:00 27.5 18 Sudoeste 32 Oeste 0 -- -- 45
2018-07-04 17:00:00 27 18 Sudoeste 31 Noroeste 0 -- -- 48
2018-07-04 16:00:00 26.4 15 Norte 33 Noroeste 0 -- -- 43
2018-07-04 15:00:00 26.3 15 Noroeste 30 Oeste 0 -- -- 43
2018-07-04 14:00:00 25.9 14 Norte 30 Oeste 0 -- -- 44
2018-07-04 13:00:00 24.5 14 Noroeste 33 Oeste 0 -- -- 48
2018-07-04 12:00:00 23.5 14 Noroeste 31 Noroeste 0 -- -- 51
2018-07-04 11:00:00 21.4 14 Noroeste 26 Noroeste 0 -- -- 56
2018-07-04 10:00:00 19.7 13 Noroeste 28 Noroeste 0 -- -- 63
2018-07-04 09:00:00 18.1 8 Noroeste 16 Oeste 0 -- -- 72
2018-07-04 08:00:00 14.9 3 Sudeste 5 Sudeste 0 -- -- 83
2018-07-04 07:00:00 15.2 2 Oeste 13 Noroeste 0 -- -- 81
2018-07-04 06:00:00 15.8 6 Noroeste 16 Oeste 0 -- -- 78
2018-07-04 05:00:00 17 4 Noroeste 24 Noroeste 0 -- -- 73
2018-07-04 04:00:00 17.5 11 Noroeste 22 Noroeste 0 -- -- 71
2018-07-04 03:00:00 18.3 5 Noroeste 22 Oeste 0 -- -- 67
2018-07-04 02:00:00 19.2 14 Noroeste 28 Noroeste 0 -- -- 62
2018-07-04 01:00:00 20.4 13 Noroeste 36 Noroeste 0 -- -- 57
2018-07-04 00:00:00 21.7 12 Noroeste 32 Noroeste 0 -- -- 56
2018-07-03 23:00:00 21.8 3 Sudoeste 12 Sudoeste 0 -- -- 62
2018-07-03 22:00:00 23.2 7 Sudoeste 17 Sudoeste 0 -- -- 57
2018-07-03 21:00:00 25.6 11 Sudoeste 26 Sudoeste 0 -- -- 49
2018-07-03 20:00:00 27.4 18 Sudoeste 32 Sudoeste 0 -- -- 44
2018-07-03 19:00:00 28.8 20 Sudoeste 33 Sudoeste 0 -- -- 43
2018-07-03 18:00:00 30.9 19 Sudoeste 33 Oeste 0 -- -- 39
2018-07-03 17:00:00 32.5 13 Oeste 27 Oeste 0 -- -- 35
2018-07-03 16:00:00 31.4 10 Sudoeste 24 Sudoeste 0 -- -- 35
2018-07-03 15:00:00 30.7 8 Noroeste 24 Sur 0 -- -- 37
2018-07-03 14:00:00 29.3 8 Oeste 20 Sur 0 -- -- 41
2018-07-03 13:00:00 28.6 9 Sudeste 19 Este 0 -- -- 44
2018-07-03 12:00:00 27.1 9 Sudeste 18 Sudeste 0 -- -- 48
2018-07-03 11:00:00 25.1 6 Sur 11 Sur 0 -- -- 57
2018-07-03 10:00:00 22.2 5 Sur 10 Sudoeste 0 -- -- 66
2018-07-03 09:00:00 19.8 0 Calma 4 Sur 0 -- -- 75
2018-07-03 08:00:00 15.5 0 Calma 5 Noroeste 0 -- -- 89
2018-07-03 07:00:00 15.6 0 Calma 6 Norte 0 -- -- 85
2018-07-03 06:00:00 17.4 4 Noroeste 10 Norte 0 -- -- 80
2018-07-03 05:00:00 18.1 5 Noroeste 13 Noroeste 0 -- -- 77
2018-07-03 04:00:00 18.6 7 Noroeste 18 Noroeste 0 -- -- 75
2018-07-03 03:00:00 19 9 Noroeste 19 Noroeste 0 -- -- 73
2018-07-03 02:00:00 17.2 4 Noroeste 9 Oeste 0 -- -- 85
2018-07-03 01:00:00 17.6 2 Norte 6 Noroeste 0 -- -- 79
2018-07-03 00:00:00 19.8 4 Noroeste 15 Oeste 0 -- -- 76
2018-07-02 23:00:00 20.8 9 Oeste 18 Oeste 0 -- -- 75
2018-07-02 22:00:00 22.3 11 Sudoeste 27 Sudoeste 0 -- -- 63
2018-07-02 21:00:00 24.6 15 Sudoeste 29 Sudoeste 0 -- -- 55
2018-07-02 20:00:00 26.3 15 Sudoeste 30 Sudoeste 0 -- -- 52
2018-07-02 19:00:00 27.1 15 Sudoeste 28 Sudoeste 0 -- -- 49
2018-07-02 18:00:00 25.7 12 Sudoeste 24 Sur 0 -- -- 52
2018-07-02 17:00:00 26.9 13 Sudoeste 29 Oeste 0 -- -- 49
2018-07-02 16:00:00 27.6 10 Oeste 23 Oeste 0 -- -- 42
2018-07-02 15:00:00 26 6 Noroeste 21 Noroeste 0 -- -- 47
2018-07-02 14:00:00 24.7 8 Oeste 21 Noroeste 0 -- -- 50
2018-07-02 13:00:00 24.1 6 Oeste 14 Oeste 0 -- -- 51
2018-07-02 12:00:00 22.3 4 Sur 11 Sudoeste 0 -- -- 63
2018-07-02 11:00:00 21.2 3 Nordeste 12 Oeste 0 -- -- 69
2018-07-02 10:00:00 19.9 2 Sudoeste 5 Sur 0 -- -- 76
2018-07-02 09:00:00 17.2 0 Calma 4 Norte 0 -- -- 91
2018-07-02 08:00:00 15.1 3 Norte 5 Norte 0 -- -- 95
2018-07-02 07:00:00 13.4 0 Calma 4 Nordeste 0 -- -- 94
2018-07-02 06:00:00 12.8 2 Nordeste 5 Norte 0 -- -- 92
2018-07-02 05:00:00 12.7 3 Norte 4 Norte 0 -- -- 91
2018-07-02 04:00:00 13.6 0 Calma 3 Oeste 0 -- -- 89
2018-07-02 03:00:00 14.9 0 Calma 10 Oeste 0 -- -- 88
2018-07-02 02:00:00 16.6 5 Oeste 8 Oeste 0 -- -- 87
2018-07-02 01:00:00 17.3 4 Oeste 15 Sudoeste 0 -- -- 83
2018-07-02 00:00:00 18 8 Sudoeste 19 Oeste 0 -- -- 81
2018-07-01 23:00:00 18.9 9 Sudoeste 23 Sudoeste 0 -- -- 71
2018-07-01 22:00:00 20 8 Sudoeste 24 Sudoeste 0 -- -- 70
2018-07-01 21:00:00 22 14 Sudoeste 31 Oeste 0 -- -- 66
2018-07-01 20:00:00 23.3 15 Sudoeste 30 Sudoeste 0 -- -- 62
2018-07-01 19:00:00 24.1 15 Sudoeste 35 Sudoeste 0 -- -- 56
2018-07-01 18:00:00 24.6 15 Sudoeste 35 Sudoeste 0 -- -- 53
2018-07-01 17:00:00 25.6 20 Sudoeste 34 Sudoeste 0 -- -- 51
2018-07-01 16:00:00 25.2 18 Sudoeste 38 Sudoeste 0 -- -- 52
2018-07-01 15:00:00 25 18 Sudoeste 33 Sudoeste 0 -- -- 52
2018-07-01 14:00:00 24.7 15 Sudoeste 29 Sudoeste 0 -- -- 55
2018-07-01 13:00:00 23 11 Sur 26 Sudoeste 0 -- -- 57
2018-07-01 12:00:00 22.5 7 Sudoeste 22 Sudoeste 0 -- -- 61
2018-07-01 11:00:00 20.7 6 Sudoeste 14 Sudoeste 0 -- -- 74
2018-07-01 10:00:00 18.9 5 Oeste 12 Sudoeste 0 -- -- 85
2018-07-01 09:00:00 16.6 2 Noroeste 5 Noroeste 0 -- -- 97
2018-07-01 08:00:00 15.9 3 Norte 6 Noroeste 0 -- -- 96
2018-07-01 07:00:00 15.9 0 Calma 4 Noroeste 0 -- -- 96
2018-07-01 06:00:00 15 2 Norte 4 Norte 0 -- -- 94
2018-07-01 05:00:00 15.3 0 Calma 4 Sudoeste 0 -- -- 93
2018-07-01 04:00:00 15.4 0 Calma 2 Este 0 -- -- 91
2018-07-01 03:00:00 16.7 0 Calma 4 Norte 0 -- -- 93
2018-07-01 02:00:00 16.6 0 Calma 6 Este 0 -- -- 90
2018-07-01 01:00:00 17.3 0 Calma 5 Sudeste 0 -- -- 88
2018-07-01 00:00:00 17.8 3 Sur 8 Sudoeste 0 -- -- 87
2018-06-30 23:00:00 18.6 5 Sudoeste 13 Sur 0 -- -- 84
2018-06-30 22:00:00 19.7 8 Sudoeste 19 Sudoeste 0 -- -- 79
2018-06-30 21:00:00 22 10 Sudoeste 23 Sudoeste 0 -- -- 72
2018-06-30 20:00:00 22.3 11 Sudoeste 27 Sudoeste 0 -- -- 68
2018-06-30 19:00:00 23.9 14 Sur 30 Sur 0 -- -- 62
2018-06-30 18:00:00 24.8 11 Sur 26 Sudeste 0 -- -- 61
2018-06-30 17:00:00 23.7 12 Sudoeste 29 Sudoeste 0 -- -- 67
2018-06-30 16:00:00 22.4 12 Sudoeste 22 Sudoeste 0 -- -- 75
2018-06-30 15:00:00 22.2 7 Sudoeste 30 Sur 0 -- -- 81
2018-06-30 14:00:00 20.1 13 Sur 28 Sudeste 2 -- -- 91
2018-06-30 13:00:00 21.1 16 Sur 31 Sur 0 -- -- 78
2018-06-30 12:00:00 22.4 17 Sur 31 Sudeste 0 -- -- 64
2018-06-30 11:00:00 22.4 19 Sur 34 Sur 0 -- -- 68
2018-06-30 10:00:00 21 10 Sudeste 17 Sudeste 0 -- -- 79
2018-06-30 09:00:00 18.7 3 Sur 11 Este 0 -- -- 87
2018-06-30 08:00:00 17.1 4 Este 10 Nordeste 0 -- -- 88
2018-06-30 07:00:00 16.9 5 Este 10 Este 0 -- -- 87
2018-06-30 06:00:00 17.2 4 Este 9 Este 0 -- -- 86
2018-06-30 05:00:00 17.3 4 Este 8 Este 0 -- -- 84
2018-06-30 04:00:00 17.5 4 Este 8 Este 0 -- -- 82
2018-06-30 03:00:00 17.6 2 Sudoeste 7 Sur 0 -- -- 83
2018-06-30 02:00:00 16.7 2 Oeste 5 Oeste 0 -- -- 82
2018-06-30 01:00:00 18.1 2 Sudoeste 6 Sudoeste 0 -- -- 77
2018-06-30 00:00:00 19 3 Sudoeste 9 Oeste 0 -- -- 75
2018-06-29 23:00:00 20.2 4 Sudoeste 15 Sudoeste 0 -- -- 71
2018-06-29 22:00:00 22.2 8 Sudoeste 18 Oeste 0 -- -- 61
2018-06-29 21:00:00 24.3 9 Sudoeste 24 Sur 0 -- -- 52
2018-06-29 20:00:00 25.2 14 Sudoeste 27 Sudoeste 0 -- -- 49
2018-06-29 19:00:00 26.4 17 Sudoeste 31 Oeste 0 -- -- 49
2018-06-29 18:00:00 27.9 14 Sudoeste 31 Sudoeste 0 -- -- 48
2018-06-29 17:00:00 28.6 16 Sudoeste 28 Sudoeste 0 -- -- 47
2018-06-29 16:00:00 29.2 15 Sudoeste 39 Oeste 0 -- -- 46
2018-06-29 15:00:00 29.9 5 Sudeste 21 Sur 0 -- -- 42
2018-06-29 14:00:00 28.3 8 Sur 24 Sudeste 0 -- -- 46
2018-06-29 13:00:00 27 8 Sudoeste 19 Sudeste 0 -- -- 53
2018-06-29 12:00:00 25.1 9 Sudeste 19 Sudeste 0 -- -- 61
2018-06-29 11:00:00 23.8 9 Sudeste 17 Sudeste 0 -- -- 63
2018-06-29 10:00:00 21.1 6 Este 17 Este 0 -- -- 76
2018-06-29 09:00:00 17.8 7 Este 24 Este 0 -- -- 89
2018-06-29 08:00:00 15.4 6 Este 11 Este 0 -- -- 91
2018-06-29 07:00:00 14 3 Este 4 Este 0 -- -- 88
2018-06-29 06:00:00 14.5 2 Norte 4 Norte 0 -- -- 84
2018-06-29 05:00:00 15 3 Noroeste 5 Nordeste 0 -- -- 83
2018-06-29 04:00:00 15.6 3 Nordeste 4 Nordeste -- -- -- 79
2018-06-29 03:00:00 15.9 0 Calma 4 Oeste 0 -- -- 78
2018-06-29 02:00:00 16.1 2 Noroeste 4 Nordeste 0 -- -- 76
2018-06-29 01:00:00 17 3 Nordeste 4 Nordeste 0 -- -- 73
2018-06-29 00:00:00 18.8 2 Oeste 6 Oeste 0 -- -- 66
2018-06-28 23:00:00 21.5 4 Sudoeste 12 Sudoeste 0 -- -- 58
2018-06-28 22:00:00 22.6 6 Sudoeste 19 Sudoeste 0 -- -- 55
2018-06-28 21:00:00 24.6 10 Sudoeste 27 Sudoeste 0 -- -- 51
2018-06-28 20:00:00 25.6 14 Sudoeste 29 Oeste 0 -- -- 46
2018-06-28 19:00:00 26.8 16 Sudoeste 33 Sudoeste 0 -- -- 45
2018-06-28 18:00:00 28.2 20 Sudoeste 37 Sur 0 -- -- 42
2018-06-28 17:00:00 29.4 19 Sudoeste 37 Oeste 0 -- -- 40
2018-06-28 16:00:00 29.8 18 Sudoeste 32 Sudoeste 0 -- -- 36
2018-06-28 15:00:00 29.8 7 Sudoeste 24 Sudoeste 0 -- -- 35
2018-06-28 14:00:00 27.7 9 Sudoeste 20 Sudeste 0 -- -- 39
2018-06-28 13:00:00 25.4 8 Sur 17 Noroeste 0 -- -- 48
2018-06-28 12:00:00 23.6 6 Oeste 16 Sudoeste 0 -- -- 56
2018-06-28 11:00:00 23.8 5 Oeste 11 Oeste 0 -- -- 54
2018-06-28 10:00:00 22.4 3 Noroeste 16 Noroeste 0 -- -- 60
2018-06-28 09:00:00 20.9 4 Norte 9 Norte 0 -- -- 66
2018-06-28 08:00:00 19 3 Noroeste 13 Oeste 0 -- -- 72
2018-06-28 07:00:00 19.4 4 Oeste 8 Oeste 0 -- -- 72
2018-06-28 06:00:00 19.9 3 Oeste 7 Noroeste 0 -- -- 70
2018-06-28 05:00:00 20.3 0 Calma 13 Noroeste 0 -- -- 69
2018-06-28 04:00:00 20.5 4 Norte 12 Noroeste 0 -- -- 68
2018-06-28 03:00:00 21.4 6 Noroeste 22 Noroeste 0 -- -- 65
2018-06-28 02:00:00 22 10 Noroeste 23 Noroeste 0 -- -- 63
2018-06-28 01:00:00 22.6 11 Noroeste 21 Oeste 0 -- -- 62
2018-06-28 00:00:00 20.4 4 Oeste 9 Oeste 0 -- -- 65
2018-06-27 23:00:00 22.8 5 Oeste 19 Sudoeste 0 -- -- 58
2018-06-27 22:00:00 24.1 12 Sudoeste 26 Sudoeste 0 -- -- 55
2018-06-27 21:00:00 25.8 14 Sudoeste 28 Sudoeste 0 -- -- 50
2018-06-27 20:00:00 27.2 16 Sudoeste 30 Sudoeste 0 -- -- 46
2018-06-27 19:00:00 27.4 18 Sudoeste 33 Sudoeste 0 -- -- 45
2018-06-27 18:00:00 28.8 21 Sudoeste 36 Oeste 0 -- -- 43
2018-06-27 17:00:00 30.6 20 Sudoeste 33 Sudoeste 0 -- -- 37
2018-06-27 16:00:00 31.6 15 Oeste 32 Sudoeste 0 -- -- 29
2018-06-27 15:00:00 30.9 11 Sudoeste 24 Oeste 0 -- -- 32
2018-06-27 14:00:00 29.8 8 Sudoeste 25 Sudeste 0 -- -- 34
2018-06-27 13:00:00 28.7 7 Sudoeste 20 Sur 0 -- -- 36
2018-06-27 12:00:00 26.4 5 Sudoeste 15 Sur 0 -- -- 40
2018-06-27 11:00:00 24.1 5 Sudoeste 11 Sur 0 -- -- 54
2018-06-27 10:00:00 22.5 5 Sudeste 9 Sudeste 0 -- -- 61
2018-06-27 09:00:00 19.6 0 Calma 4 Sudeste 0 -- -- 72
2018-06-27 08:00:00 15.2 2 Este 4 Nordeste 0 -- -- 86
2018-06-27 07:00:00 14.7 4 Norte 8 Noroeste 0 -- -- 85
2018-06-27 06:00:00 14.9 2 Oeste 4 Noroeste 0 -- -- 83
2018-06-27 05:00:00 16.7 2 Noroeste 10 Noroeste 0 -- -- 77
2018-06-27 04:00:00 17.2 4 Noroeste 9 Noroeste 0 -- -- 76
2018-06-27 03:00:00 17.8 7 Noroeste 10 Noroeste 0 -- -- 75
2018-06-27 02:00:00 18.4 4 Oeste 8 Noroeste 0 -- -- 73
2018-06-27 01:00:00 18.4 4 Noroeste 8 Noroeste 0 -- -- 74
2018-06-27 00:00:00 19.3 3 Noroeste 4 Oeste 0 -- -- 72
2018-06-26 23:00:00 21.9 3 Oeste 9 Sudoeste 0 -- -- 64
2018-06-26 22:00:00 23.3 6 Sudoeste 21 Sudoeste 0 -- -- 59
2018-06-26 21:00:00 24.7 11 Sudoeste 28 Sudoeste 0 -- -- 56
2018-06-26 20:00:00 26.4 19 Sudoeste 28 Sudoeste 0 -- -- 52
2018-06-26 19:00:00 28.5 17 Oeste 31 Sudoeste 0 -- -- 49
2018-06-26 18:00:00 29.6 18 Sudoeste 33 Sudoeste 0 -- -- 48
2018-06-26 17:00:00 30.2 17 Sur 30 Sur 0 -- -- 48
2018-06-26 16:00:00 30.2 9 Sur 21 Sur 0 -- -- 46
2018-06-26 15:00:00 30.2 7 Sudoeste 17 Sur 0 -- -- 47
2018-06-26 14:00:00 28 5 Sur 21 Sur 0 -- -- 53
2018-06-26 13:00:00 26.6 7 Sudeste 18 Sudeste 0 -- -- 59
2018-06-26 12:00:00 24.6 6 Sudeste 15 Norte 0 -- -- 65
2018-06-26 11:00:00 21.9 7 Noroeste 13 Noroeste 0 -- -- 75
2018-06-26 10:00:00 19.8 4 Norte 11 Este 0 -- -- 83
2018-06-26 09:00:00 18.6 5 Este 10 Este 0 -- -- 89
2018-06-26 08:00:00 17.7 4 Nordeste 9 Nordeste 0 -- -- 93
2018-06-26 07:00:00 16.9 4 Nordeste 8 Nordeste 0 -- -- 93
2018-06-26 06:00:00 16.3 3 Nordeste 8 Nordeste 0 -- -- 91
2018-06-26 05:00:00 16.2 3 Nordeste 6 Nordeste 0 -- -- 88
2018-06-26 04:00:00 16.6 4 Nordeste 6 Nordeste 0 -- -- 88
2018-06-26 03:00:00 17.1 3 Nordeste 4 Nordeste 0 -- -- 86
2018-06-26 02:00:00 18.3 0 Calma 8 Sudeste 0 -- -- 81
2018-06-26 01:00:00 19.2 4 Sudeste 8 Sudeste 0 -- -- 79
2018-06-26 00:00:00 20 4 Sudoeste 6 Sudoeste 0 -- -- 78
2018-06-25 23:00:00 20.8 4 Sur 14 Oeste 0 -- -- 75
2018-06-25 22:00:00 22.1 11 Sudoeste 18 Sudoeste 0 -- -- 72
2018-06-25 21:00:00 24.7 9 Sudoeste 22 Sudoeste 0 -- -- 65
2018-06-25 20:00:00 27.2 12 Sudoeste 23 Sudoeste 0 -- -- 56
2018-06-25 19:00:00 28.8 13 Sudoeste 26 Oeste 0 -- -- 52
2018-06-25 18:00:00 29.8 10 Sur 22 Sur 0 -- -- 48
2018-06-25 17:00:00 29.4 10 Sur 22 Sudoeste 0 -- -- 48
2018-06-25 16:00:00 28.1 8 Sur 23 Sudeste 0 -- -- 51
2018-06-25 15:00:00 27.1 9 Sur 25 Sudeste 0 -- -- 54
2018-06-25 14:00:00 25.5 10 Sur 21 Sudeste 0 -- -- 59
2018-06-25 13:00:00 23.8 10 Sudeste 21 Sudeste 0 -- -- 63
2018-06-25 12:00:00 23.2 9 Sudeste 17 Este 0 -- -- 66
2018-06-25 11:00:00 20.3 5 Sudeste 16 Este 0 -- -- 76
2018-06-25 10:00:00 19.8 8 Sudeste 17 Sudeste 0 -- -- 80
2018-06-25 09:00:00 19.3 5 Sudeste 13 Este 0 -- -- 83
2018-06-25 08:00:00 19.1 8 Sudeste 15 Sudeste 0 -- -- 83
2018-06-25 07:00:00 19.1 7 Sudeste 16 Sudeste 0 -- -- 84
2018-06-25 06:00:00 19.3 8 Sudeste 15 Sudeste 0 -- -- 84
2018-06-25 05:00:00 19.7 5 Sudeste 10 Sudeste 0 -- -- 84
2018-06-25 04:00:00 19.6 6 Sur 14 Sur 0 -- -- 87
2018-06-25 03:00:00 19 2 Sudeste 6 Sudeste 0 -- -- 89
2018-06-25 02:00:00 19.4 4 Sur 10 Sur 0 -- -- 88
2018-06-25 01:00:00 20.3 6 Sur 11 Sur 0 -- -- 84
2018-06-25 00:00:00 21.6 3 Sur 5 Sur 0 -- -- 76
2018-06-24 23:00:00 22.8 0 Calma 10 Sudoeste 0 -- -- 72
2018-06-24 22:00:00 23.8 6 Sudoeste 21 Sudoeste 0 -- -- 69
2018-06-24 21:00:00 25.4 13 Sudoeste 21 Sudoeste 0 -- -- 63
2018-06-24 20:00:00 27.6 13 Sudoeste 25 Sudoeste 0 -- -- 54
2018-06-24 19:00:00 28.8 13 Sudoeste 28 Oeste 0 -- -- 51
2018-06-24 18:00:00 30 14 Sudoeste 33 Sudoeste 0 -- -- 49
2018-06-24 17:00:00 30.9 17 Oeste 31 Sudoeste 0 -- -- 48
2018-06-24 16:00:00 31.3 15 Sudoeste 29 Sudoeste 0 -- -- 45
2018-06-24 15:00:00 31.7 11 Sudoeste 22 Sudeste 0 -- -- 43
2018-06-24 14:00:00 31 7 Sur 22 Sudoeste 0 -- -- 44
2018-06-24 13:00:00 29.2 8 Sur 21 Sudoeste 0 -- -- 47
2018-06-24 12:00:00 28.2 7 Sudoeste 15 Sudoeste 0 -- -- 47
2018-06-24 11:00:00 26.6 7 Sur 16 Sur 0 -- -- 49
2018-06-24 10:00:00 25.4 6 Sur 10 Sur 0 -- -- 52
2018-06-24 09:00:00 22.3 0 Calma 4 Norte 0 -- -- 65
2018-06-24 08:00:00 17 4 Norte 6 Noroeste 0 -- -- 83
2018-06-24 07:00:00 16.5 3 Noroeste 3 Noroeste 0 -- -- 82
2018-06-24 06:00:00 16.8 0 Calma 5 Noroeste 0 -- -- 79
2018-06-24 05:00:00 17.6 3 Norte 8 Noroeste 0 -- -- 74
2018-06-24 04:00:00 17.7 5 Noroeste 7 Noroeste 0 -- -- 73
2018-06-24 03:00:00 18.5 4 Noroeste 8 Noroeste 0 -- -- 70
2018-06-24 02:00:00 19.5 5 Noroeste 7 Noroeste 0 -- -- 68
2018-06-24 01:00:00 19.9 4 Noroeste 6 Oeste 0 -- -- 64
2018-06-24 00:00:00 21.4 3 Oeste 5 Oeste 0 -- -- 60
2018-06-23 23:00:00 24.1 4 Oeste 12 Oeste 0 -- -- 52
2018-06-23 22:00:00 26.4 8 Sudoeste 20 Oeste 0 -- -- 46
2018-06-23 21:00:00 28.6 12 Sudoeste 28 Oeste 0 -- -- 42
2018-06-23 20:00:00 30.2 14 Sudoeste 28 Sudoeste 0 -- -- 39
2018-06-23 19:00:00 31.9 19 Sudoeste 28 Sudoeste 0 -- -- 36
2018-06-23 18:00:00 34.4 10 Sudoeste 26 Sudoeste 0 -- -- 31
2018-06-23 17:00:00 34.5 7 Sudoeste 25 Oeste 0 -- -- 30
2018-06-23 16:00:00 34.4 6 Sudeste 30 Este 0 -- -- 29
2018-06-23 15:00:00 33.8 9 Sudeste 27 Sudeste 0 -- -- 30
2018-06-23 14:00:00 32.6 9 Este 21 Sudeste 0 -- -- 32
2018-06-23 13:00:00 31.1 9 Este 17 Sudeste 0 -- -- 35
2018-06-23 12:00:00 29.4 8 Este 18 Este 0 -- -- 38
2018-06-23 11:00:00 26.7 3 Norte 9 Este 0 -- -- 47
2018-06-23 10:00:00 24.3 3 Oeste 6 Sudoeste 0 -- -- 53
2018-06-23 09:00:00 21.9 0 Calma 6 Nordeste 0 -- -- 65
2018-06-23 08:00:00 15.9 4 Norte 6 Norte 0 -- -- 84
2018-06-23 07:00:00 15.6 4 Norte 6 Nordeste 0 -- -- 83
2018-06-23 06:00:00 15.9 4 Nordeste 7 Nordeste 0 -- -- 82
2018-06-23 05:00:00 16.5 5 Nordeste 6 Nordeste 0 -- -- 81
2018-06-23 04:00:00 17.3 4 Norte 6 Norte 0 -- -- 78
2018-06-23 03:00:00 18.5 4 Norte 8 Norte 0 -- -- 76
2018-06-23 02:00:00 18.8 5 Noroeste 10 Noroeste 0 -- -- 78
2018-06-23 01:00:00 18.9 3 Norte 4 Noroeste 0 -- -- 79
2018-06-23 00:00:00 20.4 2 Noroeste 5 Sudoeste 0 -- -- 73
2018-06-22 23:00:00 22.4 4 Sudoeste 13 Sudoeste 0 -- -- 69
2018-06-22 22:00:00 23.9 6 Sudoeste 15 Sudoeste 0 -- -- 63
2018-06-22 21:00:00 26.4 11 Sudoeste 26 Sudoeste 0 -- -- 54
2018-06-22 20:00:00 28.3 15 Sudoeste 31 Sudoeste 0 -- -- 49
2018-06-22 19:00:00 30.1 18 Sudoeste 35 Sudoeste 0 -- -- 45
2018-06-22 18:00:00 33.1 9 Sur 21 Sur 0 -- -- 34
2018-06-22 17:00:00 32.8 5 Sur 15 Sur 0 -- -- 35
2018-06-22 16:00:00 31.4 6 Sudeste 17 Este 0 -- -- 39
2018-06-22 15:00:00 29.9 8 Sur 17 Sur 0 -- -- 44
2018-06-22 14:00:00 29.1 6 Sur 15 Sudoeste 0 -- -- 44
2018-06-22 13:00:00 27.6 8 Sur 15 Sudeste 0 -- -- 52
2018-06-22 12:00:00 27 5 Oeste 15 Sudoeste 0 -- -- 52
2018-06-22 11:00:00 25.4 6 Oeste 14 Oeste 0 -- -- 57
2018-06-22 10:00:00 22.3 4 Sudoeste 9 Sudoeste 0 -- -- 68
2018-06-22 09:00:00 20.4 3 Sudoeste 13 Noroeste 0 -- -- 78
2018-06-22 08:00:00 19.4 5 Sudoeste 25 Sudoeste 0.2 -- -- 82
2018-06-22 07:00:00 18.9 4 Sudoeste 9 Sudeste 0 -- -- 83
2018-06-22 06:00:00 19.6 5 Norte 10 Norte 0 -- -- 74
2018-06-22 05:00:00 19.7 4 Norte 8 Norte 0 -- -- 77
2018-06-22 04:00:00 20.6 0 Calma 10 Norte 0 -- -- 69
2018-06-22 03:00:00 20.3 5 Noroeste 8 Noroeste 0 -- -- 69
2018-06-22 02:00:00 20.2 4 Noroeste 13 Noroeste 0 -- -- 69
2018-06-22 01:00:00 19.4 8 Noroeste 12 Noroeste 0 -- -- 74
2018-06-22 00:00:00 19.8 4 Noroeste 8 Oeste 0 -- -- 72
2018-06-21 23:00:00 21.9 5 Sudoeste 14 Oeste 0 -- -- 67
2018-06-21 22:00:00 22.6 8 Oeste 21 Oeste 0 -- -- 65
2018-06-21 21:00:00 23.3 14 Oeste 26 Sudoeste 0 -- -- 61
2018-06-21 20:00:00 25.3 14 Sudoeste 30 Sudoeste 0 -- -- 57
2018-06-21 19:00:00 25.8 17 Sudoeste 28 Sudoeste 0 -- -- 55
2018-06-21 18:00:00 27 14 Sudoeste 28 Sudoeste 0 -- -- 54
2018-06-21 17:00:00 30.7 11 Sudoeste 25 Sudoeste 0 -- -- 45
2018-06-21 16:00:00 30.9 5 Sur 15 Sur 0 -- -- 41
2018-06-21 15:00:00 30.7 8 Sudeste 17 Sur 0 -- -- 42
2018-06-21 14:00:00 30.7 5 Oeste 15 Sudeste 0 -- -- 41
2018-06-21 13:00:00 28.7 5 Norte 13 Nordeste 0 -- -- 48
2018-06-21 12:00:00 26.7 5 Noroeste 11 Sudeste 0 -- -- 55
2018-06-21 11:00:00 23.9 7 Sur 15 Sudeste 0 -- -- 62
2018-06-21 10:00:00 22.6 11 Sudeste 22 Sudeste 0 -- -- 68
2018-06-21 09:00:00 21.2 11 Noroeste 21 Norte 0 -- -- 72
2018-06-21 08:00:00 19.8 6 Norte 13 Nordeste 0 -- -- 76
2018-06-21 07:00:00 20 8 Norte 15 Norte 0 -- -- 74
2018-06-21 06:00:00 20.3 8 Noroeste 17 Noroeste 0 -- -- 72
2018-06-21 05:00:00 19.8 9 Noroeste 14 Noroeste 0 -- -- 75
2018-06-21 04:00:00 18.8 5 Noroeste 10 Noroeste 0 -- -- 79
2018-06-21 03:00:00 19.6 4 Noroeste 16 Sur 0 -- -- 76
2018-06-21 02:00:00 19.5 4 Sudoeste 8 Sur 0 -- -- 77
2018-06-21 01:00:00 20.4 6 Sudoeste 14 Oeste 0 -- -- 72
2018-06-21 00:00:00 21.4 7 Oeste 19 Oeste 0 -- -- 68
2018-06-20 23:00:00 22 10 Sudoeste 23 Oeste 0 -- -- 66
2018-06-20 22:00:00 22.8 12 Sudoeste 23 Sudoeste 0 -- -- 66
2018-06-20 21:00:00 26.7 13 Sudoeste 27 Oeste 0 -- -- 52
2018-06-20 20:00:00 28.2 13 Sudoeste 28 Sudoeste 0 -- -- 48
2018-06-20 19:00:00 31 13 Sudoeste 32 Oeste 0 -- -- 40
2018-06-20 18:00:00 30.4 18 Oeste 37 Sudoeste 0 -- -- 42
2018-06-20 17:00:00 30.6 21 Sudoeste 34 Sudoeste 0 -- -- 43
2018-06-20 16:00:00 31.6 13 Sudoeste 24 Sudoeste 0 -- -- 39
2018-06-20 15:00:00 30.5 4 Norte 14 Oeste 0 -- -- 41
2018-06-20 14:00:00 27.6 9 Sudoeste 22 Sudoeste 0 -- -- 49
2018-06-20 13:00:00 26 8 Oeste 23 Sudoeste 0 -- -- 54
2018-06-20 12:00:00 25 12 Sudoeste 27 Sudoeste 0 -- -- 51
2018-06-20 11:00:00 26.1 4 Norte 14 Sudeste 0 -- -- 45
2018-06-20 10:00:00 24.6 5 Este 13 Este 0 -- -- 49
2018-06-20 09:00:00 22.5 5 Este 12 Sudeste 0 -- -- 56
2018-06-20 08:00:00 19 6 Norte 10 Nordeste 0 -- -- 69
2018-06-20 07:00:00 17.9 5 Norte 12 Norte 0 -- -- 73
2018-06-20 06:00:00 18.7 9 Nordeste 12 Nordeste 0 -- -- 71
2018-06-20 05:00:00 18.7 4 Sudeste 14 Norte 0 -- -- 71
2018-06-20 04:00:00 17.3 4 Norte 6 Norte 0 -- -- 76
2018-06-20 03:00:00 18.5 4 Noroeste 6 Sudoeste 0 -- -- 71
2018-06-20 02:00:00 20.3 4 Sur 9 Noroeste 0 -- -- 64
2018-06-20 01:00:00 20.9 5 Noroeste 12 Noroeste 0 -- -- 63
2018-06-20 00:00:00 21.7 6 Norte 10 Noroeste 0 -- -- 61
2018-06-19 23:00:00 23 4 Noroeste 11 Oeste 0 -- -- 57
2018-06-19 22:00:00 25.4 8 Oeste 20 Oeste 0 -- -- 51
2018-06-19 21:00:00 27.6 12 Oeste 26 Oeste 0 -- -- 46
2018-06-19 20:00:00 30.2 14 Oeste 25 Oeste 0 -- -- 41
2018-06-19 19:00:00 32.3 15 Oeste 30 Sudoeste 0 -- -- 37
2018-06-19 18:00:00 34.3 16 Sudoeste 28 Sudoeste 0 -- -- 33
2018-06-19 17:00:00 34.6 13 Sudeste 26 Sur 0 -- -- 27
2018-06-19 16:00:00 34.1 12 Sur 28 Sudeste 0 -- -- 28
2018-06-19 15:00:00 33.1 12 Sudeste 25 Sudeste 0 -- -- 30
2018-06-19 14:00:00 32 9 Este 30 Este 0 -- -- 34
2018-06-19 13:00:00 30.8 11 Sudeste 26 Este 0 -- -- 36
2018-06-19 12:00:00 29 10 Este 24 Sudeste 0 -- -- 41
2018-06-19 11:00:00 26.8 6 Este 15 Sudeste 0 -- -- 47
2018-06-19 10:00:00 24.1 3 Sudeste 6 Sudoeste 0 -- -- 58
2018-06-19 09:00:00 21.2 0 Calma 6 Noroeste 0 -- -- 69
2018-06-19 08:00:00 16.5 3 Norte 5 Norte 0 -- -- 89
2018-06-19 07:00:00 15.8 3 Norte 5 Norte 0 -- -- 87
2018-06-19 06:00:00 16.9 3 Noroeste 9 Norte 0 -- -- 85
2018-06-19 05:00:00 18.1 3 Noroeste 7 Noroeste 0 -- -- 82
2018-06-19 04:00:00 19.6 4 Sudoeste 9 Sudoeste 0 -- -- 76
2018-06-19 03:00:00 18.3 3 Sudoeste 6 Sudoeste 0 -- -- 73
2018-06-19 02:00:00 19.1 2 Oeste 9 Oeste 0 -- -- 71
2018-06-19 01:00:00 20.4 3 Noroeste 10 Noroeste 0 -- -- 67
2018-06-19 00:00:00 21.3 5 Noroeste 10 Noroeste 0 -- -- 66
2018-06-18 23:00:00 22.3 5 Noroeste 12 Oeste 0 -- -- 64
2018-06-18 22:00:00 23.4 8 Oeste 18 Sudoeste 0 -- -- 61
2018-06-18 21:00:00 24.6 10 Oeste 23 Oeste 0 -- -- 57
2018-06-18 20:00:00 26.5 14 Sudoeste 32 Sudoeste 0 -- -- 52
2018-06-18 19:00:00 29.8 14 Sudoeste 34 Sudoeste 0 -- -- 42
2018-06-18 18:00:00 31.4 19 Sudoeste 35 Sudoeste 0 -- -- 38
2018-06-18 17:00:00 33.8 24 Sudoeste 40 Sudoeste 0 -- -- 35
2018-06-18 16:00:00 37.2 10 Este 27 Sudeste 0 -- -- 26
2018-06-18 15:00:00 36.9 14 Sudeste 27 Este 0 -- -- 26
2018-06-18 14:00:00 36.1 11 Este 23 Este 0 -- -- 26
2018-06-18 13:00:00 34.3 7 Sudeste 19 Sudeste 0 -- -- 32
2018-06-18 12:00:00 31.8 8 Nordeste 18 Sudeste 0 -- -- 35
2018-06-18 11:00:00 29.1 8 Este 17 Este 0 -- -- 42
2018-06-18 10:00:00 26.9 7 Este 12 Este 0 -- -- 45
2018-06-18 09:00:00 24.2 3 Nordeste 9 Norte 0 -- -- 49
2018-06-18 08:00:00 19.4 5 Norte 10 Norte 0 -- -- 61
2018-06-18 07:00:00 18.3 6 Norte 10 Norte 0 -- -- 64
2018-06-18 06:00:00 18.5 6 Norte 10 Noroeste 0 -- -- 63
2018-06-18 05:00:00 19.3 4 Noroeste 6 Norte 0 -- -- 62
2018-06-18 04:00:00 20.6 4 Norte 8 Sudoeste 0 -- -- 57
2018-06-18 03:00:00 21.4 2 Oeste 8 Sur 0 -- -- 56
2018-06-18 02:00:00 22.2 3 Oeste 8 Oeste 0 -- -- 54
2018-06-18 01:00:00 22.3 4 Oeste 8 Noroeste 0 -- -- 55
2018-06-18 00:00:00 23.7 4 Noroeste 8 Norte 0 -- -- 50
2018-06-17 23:00:00 26 3 Sur 13 Oeste 0 -- -- 44
2018-06-17 22:00:00 27.9 8 Sudoeste 25 Sudoeste 0 -- -- 40
2018-06-17 21:00:00 31 12 Sudoeste 25 Sudoeste 0 -- -- 35
2018-06-17 20:00:00 36.6 4 Noroeste 15 Norte 0 -- -- 26
2018-06-17 19:00:00 36.9 6 Norte 20 Oeste 0 -- -- 26
2018-06-17 18:00:00 36.2 11 Sudoeste 20 Sudoeste 0 -- -- 26
2018-06-17 17:00:00 35.9 13 Sudoeste 22 Sur 0 -- -- 27
2018-06-17 16:00:00 35 12 Sudoeste 23 Sudoeste 0 -- -- 27
2018-06-17 15:00:00 34.6 11 Oeste 25 Oeste 0 -- -- 27
2018-06-17 14:00:00 32.8 8 Sudoeste 18 Sudoeste 0 -- -- 29
2018-06-17 13:00:00 31 9 Oeste 17 Sudoeste 0 -- -- 31
2018-06-17 12:00:00 29.6 9 Oeste 16 Oeste 0 -- -- 34
2018-06-17 11:00:00 27.7 6 Oeste 12 Sudoeste 0 -- -- 39
2018-06-17 10:00:00 25.3 4 Sudoeste 8 Sur 0 -- -- 47
2018-06-17 09:00:00 22.4 3 Nordeste 5 Nordeste 0 -- -- 57
2018-06-17 08:00:00 16.5 0 Calma 0 Calma 0 -- -- 75
2018-06-17 07:00:00 15.5 0 Calma -- -- 0 -- -- 74
2018-06-17 06:00:00 15.9 0 Calma -- -- 0 -- -- 71
2018-06-17 05:00:00 16.9 0 Calma 4 Nordeste 0 -- -- 68
2018-06-17 04:00:00 18.5 3 Sur 6 Noroeste 0 -- -- 60
2018-06-17 03:00:00 18.5 5 Noroeste 9 Noroeste 0 -- -- 61
2018-06-17 02:00:00 18.8 3 Noroeste 6 Noroeste 0 -- -- 62
2018-06-17 01:00:00 20.1 6 Noroeste 12 Noroeste 0 -- -- 57
2018-06-17 00:00:00 19.8 3 Noroeste 6 Norte 0 -- -- 59